Terminal Aerodrome Forecast
Issued by NWS Green Bay, WI

Home | Current Version | Previous Version | Graphics & Text | Print | Product List | Glossary On
Versions: 1 2 3 4 5 6 7 8 9 10 11 12 13 14 15 16 17 18 19 20 21 22 23 24 25 26 27 28 29 30 31 32 33 34 35 36 37 38 39 40 41 42 43 44 45 46 47 48 49 50
000
FTUS43 KGRB 271733
TAFGRB
TAF
KGRB 271733Z 2718/2818 13007KT P6SM VCSH SCT050 OVC080
      TEMPO 2718/2719 3/4SM TSRA BR BKN020 OVC040CB
     FM280100 14006KT 6SM BR VCSH SCT020 OVC035
     FM280300 15005KT 4SM BR VCSH BKN020 OVC030
      TEMPO 2803/2807 2SM -SHRA BR OVC020
     FM280700 15005KT 3SM BR VCSH OVC015
     FM281500 18010G16KT P6SM VCSH BKN030=

USA.gov is the U.S. government's official web portal to all federal, state and local government web resources and services.